Time;durP1;ratioP1;P1;durP2;ratioP2;P2;SDS_P1;SDS_P2;PMS_P1;PMS_P2;Temp;Humidity;BMP_temperature;BMP_pressure;BME280_temperature;BME280_humidity;BME280_pressure;Samples;Min_cycle;Max_cycle;Signal;HPM_P1;HPM_P2
2021/12/16 00:03:53;;;;;;;7.10;5.88;;;6.00;99.90;;;;;;4996789;28;20210;-84
2021/12/16 00:09:11;;;;;;;7.13;5.78;;;6.10;99.90;;;;;;4995517;28;20204;-83
2021/12/16 00:31:31;;;;;;;9.82;6.82;;;6.10;99.90;;;;;;4993612;28;20283;-84
2021/12/16 00:34:02;;;;;;;8.27;6.47;;;6.10;99.90;;;;;;4995852;28;20203;-84
2021/12/16 00:36:33;;;;;;;7.32;6.55;;;6.10;99.90;;;;;;4995895;28;20314;-83
2021/12/16 00:39:07;;;;;;;8.93;7.13;;;6.10;99.90;;;;;;4995214;28;20223;-83
2021/12/16 00:41:36;;;;;;;8.63;7.00;;;6.10;99.90;;;;;;4995861;28;20242;-84
2021/12/16 00:44:13;;;;;;;7.72;6.88;;;6.10;99.90;;;;;;4996115;28;20203;-84
2021/12/16 00:46:59;;;;;;;5.95;5.45;;;6.10;99.90;;;;;;4995946;28;20227;-84
2021/12/16 00:49:39;;;;;;;10.05;7.78;;;6.10;99.90;;;;;;4995610;28;20239;-84
2021/12/16 00:55:04;;;;;;;7.60;6.90;;;6.10;99.90;;;;;;4995959;28;20270;-83
2021/12/16 00:57:32;;;;;;;9.40;6.82;;;6.20;99.90;;;;;;4995495;28;20235;-83
2021/12/16 01:00:04;;;;;;;7.18;6.20;;;6.20;99.90;;;;;;4995024;28;20207;-83
2021/12/16 01:02:51;;;;;;;9.05;5.50;;;6.10;99.90;;;;;;4995779;28;20272;-83
2021/12/16 01:08:32;;;;;;;8.07;6.05;;;6.20;99.90;;;;;;4982906;28;20254;-84
2021/12/16 01:33:42;;;;;;;6.00;5.47;;;6.20;99.90;;;;;;4994769;28;20271;-83
2021/12/16 01:36:26;;;;;;;8.70;5.60;;;6.20;99.90;;;;;;4994447;28;20307;-83
2021/12/16 01:39:30;;;;;;;6.25;5.65;;;6.20;99.90;;;;;;4994705;28;20307;-83
2021/12/16 01:50:25;;;;;;;4.43;4.13;;;6.20;99.90;;;;;;5130711;27;20593;-83
2021/12/16 01:55:48;;;;;;;5.95;5.35;;;6.20;99.90;;;;;;5130705;27;20263;-83
2021/12/16 01:58:20;;;;;;;7.90;5.68;;;6.20;99.90;;;;;;5130653;27;20290;-83
2021/12/16 02:00:57;;;;;;;5.47;4.97;;;6.20;99.90;;;;;;5130410;27;20207;-83
2021/12/16 02:03:40;;;;;;;9.30;5.30;;;6.20;99.90;;;;;;5131033;27;20214;-83
2021/12/16 02:06:27;;;;;;;4.15;3.85;;;6.20;99.90;;;;;;5130638;28;20251;-85
2021/12/16 02:08:56;;;;;;;6.25;4.72;;;6.20;99.90;;;;;;5130310;27;20333;-85
2021/12/16 02:11:45;;;;;;;4.75;4.30;;;6.20;99.90;;;;;;5130465;27;20203;-85
2021/12/16 02:31:20;;;;;;;4.20;3.80;;;6.20;99.90;;;;;;5126822;27;20231;-83
2021/12/16 02:36:30;;;;;;;5.10;4.25;;;6.20;99.90;;;;;;5129474;27;20233;-83
2021/12/16 02:39:04;;;;;;;4.63;4.20;;;6.20;99.90;;;;;;5129452;27;20285;-83
2021/12/16 02:41:33;;;;;;;4.60;4.20;;;6.20;99.90;;;;;;5130043;28;20231;-83
2021/12/16 02:44:16;;;;;;;5.15;4.55;;;6.10;99.90;;;;;;5129874;27;20229;-83
2021/12/16 02:49:32;;;;;;;4.78;4.38;;;6.20;99.90;;;;;;5129140;28;20219;-83
2021/12/16 02:52:00;;;;;;;5.75;3.78;;;6.20;99.90;;;;;;5129764;28;20219;-83
2021/12/16 02:54:30;;;;;;;4.82;4.43;;;6.20;99.90;;;;;;5129872;27;20233;-83
2021/12/16 02:56:58;;;;;;;6.75;4.20;;;6.10;99.90;;;;;;5129595;27;20227;-83
2021/12/16 02:59:29;;;;;;;4.95;4.47;;;6.10;99.90;;;;;;5127986;27;20191;-83
2021/12/16 03:02:01;;;;;;;5.93;4.68;;;6.20;99.90;;;;;;5115383;27;20292;-83
2021/12/16 03:04:30;;;;;;;4.32;3.95;;;6.10;99.90;;;;;;5115638;28;20207;-83
2021/12/16 03:07:00;;;;;;;5.70;5.15;;;6.10;99.90;;;;;;5115552;28;20251;-83
2021/12/16 03:12:46;;;;;;;5.82;4.93;;;6.10;99.90;;;;;;5058254;28;20230;-82
2021/12/16 03:15:31;;;;;;;4.78;4.38;;;6.10;99.90;;;;;;5115586;27;20207;-83
2021/12/16 03:18:06;;;;;;;5.00;4.50;;;6.10;99.90;;;;;;5115738;28;20314;-83
2021/12/16 03:20:41;;;;;;;7.47;5.28;;;6.10;99.90;;;;;;5120012;28;20222;-83
2021/12/16 03:23:28;;;;;;;4.72;4.32;;;6.10;99.90;;;;;;5123189;27;20203;-83
2021/12/16 03:26:26;;;;;;;5.93;5.38;;;6.10;99.90;;;;;;5114963;28;20218;-83
2021/12/16 03:29:09;;;;;;;6.53;5.50;;;6.10;99.90;;;;;;5114418;28;20286;-83
2021/12/16 03:31:58;;;;;;;6.50;5.25;;;6.10;99.90;;;;;;5115201;28;20230;-83
2021/12/16 03:34:41;;;;;;;5.00;4.50;;;6.10;99.90;;;;;;5115186;28;20291;-83
2021/12/16 03:37:18;;;;;;;10.88;3.95;;;6.10;99.90;;;;;;5115047;28;20287;-83
2021/12/16 03:39:49;;;;;;;5.28;4.78;;;6.10;99.90;;;;;;5114231;28;20199;-83
2021/12/16 03:42:24;;;;;;;5.88;5.05;;;6.00;99.90;;;;;;5114851;28;20304;-83
2021/12/16 03:44:57;;;;;;;4.20;3.90;;;6.10;99.90;;;;;;5115509;27;20207;-83
2021/12/16 03:47:35;;;;;;;7.57;4.70;;;6.00;99.90;;;;;;5115102;28;20315;-83
2021/12/16 03:50:08;;;;;;;7.15;4.95;;;6.00;99.90;;;;;;5114265;28;20270;-83
2021/12/16 03:52:37;;;;;;;6.35;5.75;;;6.00;99.90;;;;;;5114694;28;20208;-83
2021/12/16 03:55:09;;;;;;;5.70;5.07;;;6.00;99.90;;;;;;5114743;27;20211;-83
2021/12/16 03:57:40;;;;;;;6.10;5.50;;;6.10;99.90;;;;;;5114553;28;20303;-83
2021/12/16 04:00:12;;;;;;;8.25;6.13;;;6.10;99.90;;;;;;5114358;28;20200;-83
2021/12/16 04:02:40;;;;;;;6.68;5.97;;;6.10;99.90;;;;;;5114627;28;20292;-83
2021/12/16 04:05:12;;;;;;;5.13;4.68;;;6.10;99.90;;;;;;5114008;28;20211;-83
2021/12/16 04:07:41;;;;;;;6.43;5.18;;;6.10;99.90;;;;;;5114137;28;20315;-83
2021/12/16 04:10:15;;;;;;;8.60;5.75;;;6.10;99.90;;;;;;5113601;28;20224;-83
2021/12/16 04:12:45;;;;;;;8.63;5.15;;;6.10;99.90;;;;;;5113632;28;20274;-83
2021/12/16 04:15:13;;;;;;;5.85;5.30;;;6.10;99.90;;;;;;5114587;28;20242;-83
2021/12/16 04:17:42;;;;;;;4.60;4.28;;;6.10;99.90;;;;;;5114050;27;20283;-83
2021/12/16 04:20:13;;;;;;;5.82;5.22;;;6.10;99.90;;;;;;5113683;27;20207;-83
2021/12/16 04:22:44;;;;;;;4.95;4.55;;;6.10;99.90;;;;;;5114191;28;20195;-83
2021/12/16 04:25:16;;;;;;;5.60;5.10;;;6.10;99.90;;;;;;5113510;28;20212;-83
2021/12/16 04:27:47;;;;;;;5.80;5.30;;;6.10;99.90;;;;;;5114079;28;20219;-83
2021/12/16 04:30:18;;;;;;;6.70;5.78;;;6.10;99.90;;;;;;5113320;28;20223;-83
2021/12/16 04:32:47;;;;;;;6.18;5.68;;;6.10;99.90;;;;;;5114191;28;20204;-83
2021/12/16 04:35:16;;;;;;;6.13;5.57;;;6.20;99.90;;;;;;5113640;27;20238;-83
2021/12/16 04:37:44;;;;;;;7.28;6.57;;;6.10;99.90;;;;;;5113750;28;20216;-83
2021/12/16 04:40:14;;;;;;;6.82;6.20;;;6.10;99.90;;;;;;5113393;27;20231;-83
2021/12/16 04:42:44;;;;;;;7.03;6.32;;;6.10;99.90;;;;;;5113725;27;20208;-83
2021/12/16 04:45:18;;;;;;;6.18;5.65;;;6.10;99.90;;;;;;5113515;28;20257;-83
2021/12/16 04:47:47;;;;;;;6.88;6.22;;;6.10;99.90;;;;;;5113689;27;20281;-83
2021/12/16 04:50:15;;;;;;;6.85;6.25;;;6.10;99.90;;;;;;5112800;28;20248;-83
2021/12/16 04:52:44;;;;;;;6.18;5.68;;;6.10;99.90;;;;;;5113771;28;20272;-83
2021/12/16 04:55:14;;;;;;;6.65;6.05;;;6.10;99.90;;;;;;5113538;28;20200;-83
2021/12/16 04:57:43;;;;;;;6.47;5.88;;;6.10;99.90;;;;;;5113625;27;20258;-83
2021/12/16 05:00:17;;;;;;;7.18;6.50;;;6.00;99.90;;;;;;5112960;28;20252;-83
2021/12/16 05:02:46;;;;;;;8.15;7.40;;;6.00;99.90;;;;;;5113529;28;20196;-83
2021/12/16 05:05:15;;;;;;;8.32;7.10;;;6.00;99.90;;;;;;5113189;28;20210;-83
2021/12/16 05:07:44;;;;;;;7.75;6.90;;;6.00;99.90;;;;;;5113263;28;20251;-83
2021/12/16 05:10:14;;;;;;;12.77;8.73;;;6.00;99.90;;;;;;5112364;28;20246;-83
2021/12/16 05:12:46;;;;;;;8.48;7.68;;;5.90;99.90;;;;;;5113096;28;20239;-83
2021/12/16 05:15:19;;;;;;;8.18;7.32;;;5.90;99.90;;;;;;5113183;28;20246;-83
2021/12/16 05:17:51;;;;;;;8.43;7.53;;;5.90;99.90;;;;;;5114123;28;20220;-82
2021/12/16 05:20:22;;;;;;;6.90;6.22;;;5.90;99.90;;;;;;5121660;28;20200;-82
2021/12/16 05:25:51;;;;;;;7.80;7.10;;;5.80;99.90;;;;;;5112303;28;20203;-83
2021/12/16 05:28:22;;;;;;;10.63;7.47;;;5.80;99.90;;;;;;5112802;28;20219;-83
2021/12/16 05:30:54;;;;;;;8.60;7.72;;;5.80;99.90;;;;;;5112549;27;20241;-83
2021/12/16 05:33:23;;;;;;;10.30;7.30;;;5.80;99.90;;;;;;5113320;28;20261;-83
2021/12/16 05:35:53;;;;;;;10.50;8.52;;;5.80;99.90;;;;;;5112845;28;20237;-83
2021/12/16 05:38:22;;;;;;;8.93;8.05;;;5.80;99.90;;;;;;5112533;28;20219;-83
2021/12/16 05:40:51;;;;;;;8.93;8.13;;;5.80;99.90;;;;;;5112519;28;20204;-83
2021/12/16 05:43:23;;;;;;;9.63;7.97;;;5.80;99.90;;;;;;5113038;28;20204;-84
2021/12/16 05:45:55;;;;;;;9.70;8.05;;;5.70;99.90;;;;;;5113101;28;20199;-82
2021/12/16 05:48:25;;;;;;;10.48;8.15;;;5.70;99.90;;;;;;5112562;28;20236;-83
2021/12/16 05:50:57;;;;;;;11.20;9.02;;;5.60;99.90;;;;;;5112096;28;20220;-83
2021/12/16 05:53:25;;;;;;;12.57;8.25;;;5.70;99.90;;;;;;5113017;28;20224;-83
2021/12/16 05:55:54;;;;;;;10.48;9.10;;;5.60;99.90;;;;;;5112719;28;20224;-83
2021/12/16 05:58:22;;;;;;;10.55;9.45;;;5.60;99.90;;;;;;5112792;28;20281;-83
2021/12/16 06:00:56;;;;;;;10.65;9.65;;;5.60;99.90;;;;;;5112285;27;20208;-83
2021/12/16 06:03:25;;;;;;;10.32;9.05;;;5.50;99.90;;;;;;5112649;28;20204;-83
2021/12/16 06:05:54;;;;;;;12.65;9.27;;;5.50;99.90;;;;;;5112338;27;20239;-83
2021/12/16 06:08:23;;;;;;;11.00;8.88;;;5.50;99.90;;;;;;5112661;27;20276;-83
2021/12/16 06:13:38;;;;;;;10.18;9.18;;;5.50;99.90;;;;;;5112054;28;20234;-83
2021/12/16 06:27:26;;;;;;;11.80;9.68;;;5.30;99.90;;;;;;5112595;28;20231;-83
2021/12/16 06:29:56;;;;;;;9.35;8.45;;;5.30;99.90;;;;;;5111924;28;20207;-84
2021/12/16 06:32:27;;;;;;;10.65;9.65;;;5.30;99.90;;;;;;5111886;28;20220;-83
2021/12/16 06:34:56;;;;;;;9.85;8.88;;;5.30;99.90;;;;;;5112620;27;20249;-83
2021/12/16 06:37:25;;;;;;;6.97;6.38;;;5.30;99.90;;;;;;5116167;27;20224;-83
2021/12/16 06:39:53;;;;;;;10.32;8.60;;;5.30;99.90;;;;;;5115681;28;20208;-83
2021/12/16 06:42:23;;;;;;;11.15;9.48;;;5.30;99.90;;;;;;5115897;27;20257;-83
2021/12/16 06:44:56;;;;;;;9.73;7.57;;;5.30;99.90;;;;;;5115992;28;20200;-83
2021/12/16 06:47:33;;;;;;;8.90;8.02;;;5.30;99.90;;;;;;5116273;27;20281;-83
2021/12/16 06:50:01;;;;;;;9.48;7.38;;;5.30;99.90;;;;;;5115689;27;20215;-83
2021/12/16 06:52:36;;;;;;;8.63;7.53;;;5.30;99.90;;;;;;5115829;28;20246;-83
2021/12/16 06:55:12;;;;;;;8.23;7.53;;;5.30;99.90;;;;;;5115989;28;20242;-83
2021/12/16 06:57:45;;;;;;;9.23;7.53;;;5.30;99.90;;;;;;5115686;28;20227;-83
2021/12/16 07:00:20;;;;;;;10.02;9.02;;;5.30;99.90;;;;;;5115181;27;20216;-83
2021/12/16 07:03:00;;;;;;;9.23;8.30;;;5.30;99.90;;;;;;5116032;27;20261;-83
2021/12/16 07:05:32;;;;;;;9.27;8.07;;;5.30;99.90;;;;;;5115578;27;20215;-83
2021/12/16 07:08:02;;;;;;;8.52;7.65;;;5.30;99.90;;;;;;5115832;28;20223;-83
2021/12/16 07:10:31;;;;;;;8.15;7.35;;;5.30;99.90;;;;;;5115172;28;20225;-83
2021/12/16 07:13:06;;;;;;;8.38;7.57;;;5.30;99.90;;;;;;5115416;28;20205;-83
2021/12/16 07:15:38;;;;;;;9.35;8.13;;;5.30;99.90;;;;;;5115191;28;20215;-83
2021/12/16 07:18:07;;;;;;;9.07;7.95;;;5.20;99.90;;;;;;5115774;27;20228;-83
2021/12/16 07:20:37;;;;;;;8.13;7.32;;;5.20;99.90;;;;;;5114557;28;20204;-83
2021/12/16 07:23:08;;;;;;;9.05;8.15;;;5.30;99.90;;;;;;5119396;28;20208;-82
2021/12/16 07:25:37;;;;;;;9.25;8.32;;;5.30;99.90;;;;;;5119915;28;20200;-82
2021/12/16 07:28:07;;;;;;;8.45;7.65;;;5.30;99.90;;;;;;5115435;28;20224;-83
2021/12/16 07:30:38;;;;;;;9.68;8.68;;;5.30;99.90;;;;;;5114392;28;20208;-82
2021/12/16 07:33:09;;;;;;;11.73;8.88;;;5.30;99.90;;;;;;5114503;28;20227;-82
2021/12/16 07:35:39;;;;;;;9.85;7.43;;;5.30;99.90;;;;;;5114823;28;20207;-83
2021/12/16 07:38:08;;;;;;;9.98;8.98;;;5.20;99.90;;;;;;5114843;27;20219;-82
2021/12/16 07:40:39;;;;;;;12.00;9.05;;;5.20;99.90;;;;;;5114388;28;20227;-82
2021/12/16 07:46:09;;;;;;;10.15;8.52;;;5.20;99.90;;;;;;5052245;28;20272;-82
2021/12/16 07:48:40;;;;;;;8.80;8.00;;;5.20;99.90;;;;;;5051655;28;20279;-82
2021/12/16 07:51:08;;;;;;;9.27;8.38;;;5.10;99.90;;;;;;5081343;27;20207;-82
2021/12/16 07:53:37;;;;;;;9.80;8.75;;;5.20;99.90;;;;;;5115013;28;20195;-82
2021/12/16 07:56:09;;;;;;;10.07;9.07;;;5.10;99.90;;;;;;5114718;28;20224;-83
2021/12/16 07:58:38;;;;;;;9.25;8.35;;;5.20;99.90;;;;;;5114287;28;20228;-82
2021/12/16 08:01:08;;;;;;;10.52;8.52;;;5.20;99.90;;;;;;5114308;27;20212;-82
2021/12/16 08:03:38;;;;;;;8.15;7.38;;;5.10;99.90;;;;;;5114590;27;20204;-82
2021/12/16 08:06:11;;;;;;;9.65;8.75;;;5.10;99.90;;;;;;5114612;28;20228;-82
2021/12/16 08:08:41;;;;;;;11.40;8.05;;;5.20;99.90;;;;;;5113789;28;20223;-83
2021/12/16 08:11:09;;;;;;;12.15;7.40;;;5.20;99.90;;;;;;5113976;28;20215;-83
2021/12/16 08:13:38;;;;;;;9.48;8.57;;;5.20;99.90;;;;;;5114231;28;20235;-82
2021/12/16 08:16:06;;;;;;;8.02;7.15;;;5.20;99.90;;;;;;5114304;28;20259;-82
2021/12/16 08:18:35;;;;;;;8.23;7.43;;;5.20;99.90;;;;;;5114129;27;20247;-83
2021/12/16 08:21:05;;;;;;;8.30;7.60;;;5.30;99.90;;;;;;5114219;27;20204;-83
2021/12/16 08:23:34;;;;;;;7.25;6.57;;;5.30;99.90;;;;;;5114065;28;20228;-83
2021/12/16 08:26:04;;;;;;;8.32;7.53;;;5.30;99.90;;;;;;5113196;27;20255;-83
2021/12/16 08:28:33;;;;;;;8.50;7.50;;;5.30;99.90;;;;;;5113995;28;20224;-83
2021/12/16 08:31:01;;;;;;;9.60;8.40;;;5.30;99.90;;;;;;5113310;28;20233;-83
2021/12/16 08:33:30;;;;;;;7.22;6.22;;;5.30;99.90;;;;;;5113741;28;20223;-83
2021/12/16 08:35:58;;;;;;;7.93;7.13;;;5.40;99.90;;;;;;5114356;28;20204;-83
2021/12/16 08:38:29;;;;;;;7.65;6.90;;;5.40;99.90;;;;;;5113849;28;20247;-83
2021/12/16 08:41:02;;;;;;;8.48;7.30;;;5.40;99.90;;;;;;5113426;28;20215;-83
2021/12/16 08:43:31;;;;;;;9.65;6.13;;;5.40;99.90;;;;;;5114170;28;20203;-84
2021/12/16 08:45:59;;;;;;;7.25;5.90;;;5.40;99.90;;;;;;5114070;28;20208;-84
2021/12/16 08:48:28;;;;;;;6.68;6.07;;;5.30;99.90;;;;;;5113842;27;20243;-84
2021/12/16 08:50:58;;;;;;;5.90;5.40;;;5.30;99.90;;;;;;5113088;28;20216;-84
2021/12/16 08:53:26;;;;;;;8.48;5.93;;;5.20;99.90;;;;;;5113188;28;20255;-84
2021/12/16 08:55:58;;;;;;;5.55;5.03;;;5.20;99.90;;;;;;5113713;28;20227;-84
2021/12/16 08:58:29;;;;;;;4.97;4.50;;;5.20;99.90;;;;;;5113110;28;20227;-84
2021/12/16 09:01:01;;;;;;;6.50;5.90;;;5.20;99.90;;;;;;5113160;28;20203;-84
2021/12/16 09:03:30;;;;;;;5.13;4.70;;;5.20;99.90;;;;;;5113272;27;20196;-84
2021/12/16 09:06:02;;;;;;;5.45;4.95;;;5.20;99.90;;;;;;5113353;27;20203;-84
2021/12/16 09:08:30;;;;;;;5.15;4.63;;;5.30;99.90;;;;;;5113134;28;20224;-84
2021/12/16 09:11:04;;;;;;;5.60;4.65;;;5.30;99.90;;;;;;5112992;28;20199;-83
2021/12/16 09:13:33;;;;;;;6.95;5.82;;;5.30;99.90;;;;;;5113404;28;20245;-83
2021/12/16 09:16:06;;;;;;;7.53;5.47;;;5.30;99.90;;;;;;5113112;28;20227;-84
2021/12/16 09:18:41;;;;;;;5.20;4.70;;;5.30;99.90;;;;;;5113396;27;20246;-83
2021/12/16 09:21:12;;;;;;;5.03;4.55;;;5.30;99.90;;;;;;5113258;28;20272;-83
2021/12/16 09:23:43;;;;;;;4.85;4.38;;;5.30;99.90;;;;;;5113148;28;20203;-83
2021/12/16 09:26:14;;;;;;;7.13;5.53;;;5.30;99.90;;;;;;5113943;28;20212;-84
2021/12/16 09:28:45;;;;;;;4.53;3.72;;;5.40;99.90;;;;;;5121853;27;20203;-82
2021/12/16 09:31:16;;;;;;;6.72;5.28;;;5.50;99.90;;;;;;5122209;28;20211;-83
2021/12/16 09:33:48;;;;;;;4.88;3.97;;;5.60;99.90;;;;;;5114991;28;20219;-83
2021/12/16 09:36:21;;;;;;;5.22;4.00;;;5.60;99.90;;;;;;5112846;28;20208;-83
2021/12/16 09:38:50;;;;;;;5.30;4.68;;;5.60;99.90;;;;;;5115033;28;20237;-83
2021/12/16 09:41:21;;;;;;;4.38;3.90;;;5.60;99.90;;;;;;5113220;28;20203;-84
2021/12/16 09:43:51;;;;;;;4.55;4.15;;;5.60;99.90;;;;;;5113345;27;20236;-84
2021/12/16 09:46:23;;;;;;;4.65;4.20;;;5.70;99.90;;;;;;5112956;28;20200;-84
2021/12/16 09:48:53;;;;;;;3.40;3.10;;;5.80;99.90;;;;;;5112562;27;20207;-84
2021/12/16 09:51:24;;;;;;;4.22;3.17;;;5.80;99.90;;;;;;5112886;28;20211;-84
2021/12/16 09:53:56;;;;;;;3.17;2.88;;;5.90;99.90;;;;;;5112782;28;20311;-84
2021/12/16 09:56:29;;;;;;;2.72;2.53;;;6.00;99.90;;;;;;5112770;28;20257;-84
2021/12/16 09:59:00;;;;;;;3.33;3.03;;;5.90;99.90;;;;;;5112047;28;20207;-83
2021/12/16 10:01:29;;;;;;;3.25;2.95;;;6.00;99.90;;;;;;5112962;28;20243;-84
2021/12/16 10:04:02;;;;;;;3.25;2.97;;;6.00;99.90;;;;;;5112617;28;20227;-84
2021/12/16 10:06:32;;;;;;;5.97;3.05;;;6.00;99.90;;;;;;5112943;27;20268;-84
2021/12/16 10:09:03;;;;;;;4.53;3.55;;;6.00;99.90;;;;;;5112140;28;20203;-84
2021/12/16 10:11:35;;;;;;;4.20;3.80;;;6.00;99.90;;;;;;5115663;28;20256;-84
2021/12/16 10:14:18;;;;;;;3.20;3.00;;;5.90;99.90;;;;;;5116529;27;20216;-84
2021/12/16 10:19:36;;;;;;;5.00;3.65;;;5.90;99.90;;;;;;5116582;28;20268;-84
2021/12/16 10:22:19;;;;;;;8.18;3.85;;;5.90;99.90;;;;;;5116596;28;20207;-84
2021/12/16 10:24:49;;;;;;;3.03;2.75;;;5.90;99.90;;;;;;5115512;28;20200;-84
2021/12/16 10:27:21;;;;;;;3.28;3.00;;;5.90;99.90;;;;;;5116424;28;20231;-84
2021/12/16 10:29:53;;;;;;;3.70;3.38;;;5.90;99.90;;;;;;5116302;27;20246;-84
2021/12/16 10:32:36;;;;;;;3.35;3.05;;;5.90;99.90;;;;;;5116403;28;20238;-84
2021/12/16 10:35:09;;;;;;;3.70;3.40;;;5.90;99.90;;;;;;5116221;28;20230;-84
2021/12/16 10:37:40;;;;;;;2.95;2.75;;;5.90;99.90;;;;;;5115915;28;20220;-84
2021/12/16 10:40:31;;;;;;;3.72;3.35;;;5.90;99.90;;;;;;5115665;28;20211;-85
2021/12/16 10:43:04;;;;;;;3.38;3.08;;;5.90;99.90;;;;;;5116316;27;20208;-84
2021/12/16 10:45:37;;;;;;;4.85;3.70;;;5.90;99.90;;;;;;5116483;28;20242;-84
2021/12/16 10:48:25;;;;;;;3.75;3.35;;;5.90;99.90;;;;;;5116115;27;20303;-84
2021/12/16 10:51:08;;;;;;;4.18;3.47;;;5.90;99.90;;;;;;5115518;28;20208;-84
2021/12/16 10:54:14;;;;;;;6.07;3.78;;;5.90;99.90;;;;;;5115540;28;20280;-84
2021/12/16 10:56:48;;;;;;;3.42;3.13;;;6.00;99.90;;;;;;5115678;27;20269;-84
2021/12/16 10:59:21;;;;;;;4.82;3.58;;;6.00;99.90;;;;;;5115444;28;20211;-84
2021/12/16 11:01:59;;;;;;;3.15;2.95;;;6.00;99.90;;;;;;5115508;28;20291;-85
2021/12/16 11:04:34;;;;;;;3.85;3.55;;;6.00;99.90;;;;;;5116285;27;20203;-84
2021/12/16 11:07:07;;;;;;;3.65;3.35;;;6.00;99.90;;;;;;5115744;28;20223;-84
2021/12/16 11:09:57;;;;;;;3.17;2.85;;;6.10;99.90;;;;;;5115304;27;20200;-84
2021/12/16 11:12:38;;;;;;;3.75;3.45;;;6.00;99.90;;;;;;5115757;28;20203;-84
2021/12/16 11:15:13;;;;;;;3.40;3.10;;;6.10;99.90;;;;;;5115335;28;20231;-84
2021/12/16 11:17:45;;;;;;;3.78;3.47;;;6.20;99.90;;;;;;5115308;27;20223;-84
2021/12/16 11:20:32;;;;;;;5.07;4.15;;;6.20;99.90;;;;;;5115044;27;20295;-84
2021/12/16 11:23:04;;;;;;;3.20;3.00;;;6.20;99.90;;;;;;5115451;28;20207;-84
2021/12/16 11:25:36;;;;;;;3.60;3.30;;;6.20;99.90;;;;;;5114473;27;20204;-84
2021/12/16 11:28:15;;;;;;;3.55;3.25;;;6.20;99.90;;;;;;5118008;28;20305;-83
2021/12/16 11:30:52;;;;;;;3.70;3.40;;;6.20;99.90;;;;;;5123218;28;20208;-84
2021/12/16 11:33:32;;;;;;;3.97;3.63;;;6.40;99.90;;;;;;5117839;28;20225;-84
2021/12/16 11:36:10;;;;;;;5.13;4.18;;;6.90;99.90;;;;;;5115325;28;20203;-84
2021/12/16 11:38:42;;;;;;;3.83;3.20;;;7.70;99.90;;;;;;5114985;28;20231;-84
2021/12/16 11:41:27;;;;;;;3.33;3.08;;;8.00;99.90;;;;;;5114678;28;20199;-84
2021/12/16 11:44:17;;;;;;;2.97;2.72;;;8.00;99.90;;;;;;5115073;28;20211;-84
2021/12/16 11:46:50;;;;;;;3.50;3.20;;;8.10;99.90;;;;;;5113622;27;20233;-84
2021/12/16 11:49:23;;;;;;;3.63;3.30;;;8.30;99.90;;;;;;5114598;28;20280;-84
2021/12/16 11:52:00;;;;;;;4.13;3.33;;;8.10;99.90;;;;;;5115137;28;20211;-84
2021/12/16 11:54:32;;;;;;;3.85;3.55;;;8.10;99.90;;;;;;5114617;28;20229;-84
2021/12/16 11:57:06;;;;;;;3.10;2.90;;;8.30;99.90;;;;;;5114741;28;20230;-84
2021/12/16 11:59:40;;;;;;;4.35;3.92;;;8.20;99.90;;;;;;5114319;28;20249;-84
2021/12/16 12:02:23;;;;;;;3.25;2.95;;;7.90;99.90;;;;;;5114805;28;20203;-84
2021/12/16 12:04:52;;;;;;;5.18;3.03;;;7.60;99.90;;;;;;5114567;28;20196;-84
2021/12/16 12:07:20;;;;;;;3.85;3.55;;;7.40;99.90;;;;;;5114210;27;20227;-84
2021/12/16 12:09:52;;;;;;;4.45;4.05;;;7.30;99.90;;;;;;5113997;28;20212;-84
2021/12/16 12:12:41;;;;;;;4.25;3.88;;;7.10;99.90;;;;;;5114397;28;20223;-84
2021/12/16 12:15:12;;;;;;;4.43;4.03;;;7.00;99.90;;;;;;5114573;28;20220;-84
2021/12/16 12:17:50;;;;;;;4.15;3.75;;;7.00;99.90;;;;;;5114420;28;20235;-84
2021/12/16 12:20:19;;;;;;;4.70;4.30;;;7.00;99.90;;;;;;5114302;28;20207;-84
2021/12/16 12:22:51;;;;;;;3.80;3.45;;;6.90;99.90;;;;;;5114163;27;20207;-84
2021/12/16 12:25:20;;;;;;;7.05;4.07;;;6.90;99.90;;;;;;5114484;28;20261;-84
2021/12/16 12:27:49;;;;;;;5.45;4.95;;;6.90;99.90;;;;;;5114124;28;20320;-83
2021/12/16 12:30:19;;;;;;;4.78;4.38;;;6.90;99.90;;;;;;5113708;27;20291;-84
2021/12/16 12:32:52;;;;;;;4.85;4.35;;;6.90;99.90;;;;;;5113380;27;20229;-84
2021/12/16 12:35:25;;;;;;;5.70;4.25;;;6.80;99.90;;;;;;5114052;28;20249;-84
2021/12/16 12:37:56;;;;;;;5.00;4.57;;;6.80;99.90;;;;;;5114085;28;20224;-84
2021/12/16 12:40:29;;;;;;;6.82;5.53;;;6.80;99.90;;;;;;5113293;27;20207;-84
2021/12/16 12:42:58;;;;;;;5.75;5.25;;;6.70;99.90;;;;;;5113806;28;20204;-84
2021/12/16 12:45:31;;;;;;;13.68;5.30;;;6.70;99.90;;;;;;5114263;28;20197;-84
2021/12/16 12:48:02;;;;;;;5.35;4.90;;;6.70;99.90;;;;;;5114071;28;20219;-84
2021/12/16 12:50:34;;;;;;;5.07;4.68;;;6.70;99.90;;;;;;5113346;27;20204;-84
2021/12/16 12:53:13;;;;;;;5.80;5.30;;;6.80;99.90;;;;;;5113787;28;20211;-84
2021/12/16 12:55:42;;;;;;;5.00;4.60;;;6.70;99.90;;;;;;5113448;28;20269;-84
2021/12/16 12:58:14;;;;;;;5.63;5.13;;;6.80;99.90;;;;;;5113108;28;20269;-84
2021/12/16 13:00:46;;;;;;;8.73;6.07;;;6.70;99.90;;;;;;5113012;28;20200;-84
2021/12/16 13:03:27;;;;;;;5.72;5.20;;;6.60;99.90;;;;;;5113453;28;20214;-84
2021/12/16 13:05:58;;;;;;;5.72;5.20;;;6.50;99.90;;;;;;5113731;28;20199;-84
2021/12/16 13:08:29;;;;;;;7.60;6.68;;;6.40;99.90;;;;;;5113502;27;20227;-84
2021/12/16 13:11:01;;;;;;;5.50;5.10;;;6.30;99.90;;;;;;5113202;28;20203;-84
2021/12/16 13:13:32;;;;;;;6.20;5.60;;;6.30;99.90;;;;;;5113504;28;20200;-84
2021/12/16 13:16:21;;;;;;;7.07;6.38;;;6.30;99.90;;;;;;5112879;28;20219;-84
2021/12/16 13:25:02;;;;;;;6.75;6.13;;;6.20;99.90;;;;;;5049156;28;20203;-84
2021/12/16 13:27:39;;;;;;;6.22;5.72;;;6.20;99.90;;;;;;5114566;28;20254;-83
2021/12/16 13:30:20;;;;;;;7.10;6.00;;;6.20;99.90;;;;;;5121827;28;20272;-82
2021/12/16 13:33:18;;;;;;;6.70;6.10;;;6.20;99.90;;;;;;5116771;28;20204;-84
2021/12/16 13:35:52;;;;;;;6.68;6.07;;;6.20;99.90;;;;;;5112825;27;20293;-84
2021/12/16 13:38:23;;;;;;;6.22;5.63;;;6.20;99.90;;;;;;5113165;28;20281;-84
2021/12/16 13:40:52;;;;;;;7.22;6.53;;;6.20;99.90;;;;;;5112475;28;20207;-84
2021/12/16 13:43:25;;;;;;;8.20;7.30;;;6.20;99.90;;;;;;5113027;27;20200;-84
2021/12/16 13:46:22;;;;;;;9.25;7.53;;;6.20;99.90;;;;;;5112761;28;20212;-84
2021/12/16 13:58:08;;;;;;;8.48;7.68;;;6.10;99.90;;;;;;5112261;28;20238;-84
2021/12/16 14:03:18;;;;;;;9.80;8.02;;;6.20;99.90;;;;;;5112680;27;20220;-84
2021/12/16 14:06:09;;;;;;;8.18;7.40;;;6.20;99.90;;;;;;5112558;28;20201;-88
2021/12/16 14:08:43;;;;;;;8.07;6.80;;;6.20;99.90;;;;;;5112414;28;20235;-88
2021/12/16 14:14:45;;;;;;;8.70;7.43;;;6.10;99.90;;;;;;5113052;28;20204;-88
2021/12/16 14:23:23;;;;;;;8.38;7.15;;;6.10;99.90;;;;;;5112595;28;20238;-82
2021/12/16 14:26:14;;;;;;;10.57;7.78;;;6.20;99.90;;;;;;5111276;28;20253;-85
2021/12/16 14:37:17;;;;;;;7.32;6.63;;;6.20;99.90;;;;;;5111596;27;20220;-83
2021/12/16 14:42:46;;;;;;;6.60;5.90;;;6.10;99.90;;;;;;5112713;28;20269;-84
2021/12/16 14:45:27;;;;;;;6.88;6.18;;;6.20;99.90;;;;;;5112388;28;20275;-84
2021/12/16 14:48:10;;;;;;;9.00;6.57;;;6.10;99.90;;;;;;5112218;28;20262;-83
2021/12/16 14:50:43;;;;;;;7.45;6.75;;;6.10;99.90;;;;;;5111475;27;20207;-83
2021/12/16 14:53:19;;;;;;;6.70;6.15;;;6.10;99.90;;;;;;5112304;28;20230;-83
2021/12/16 14:55:51;;;;;;;11.07;8.52;;;6.10;99.90;;;;;;5112447;28;20228;-84
2021/12/16 14:58:23;;;;;;;7.20;6.40;;;6.20;99.90;;;;;;5116084;27;20266;-83
2021/12/16 15:00:54;;;;;;;7.38;6.43;;;6.20;99.90;;;;;;5115514;28;20294;-83
2021/12/16 15:03:26;;;;;;;6.28;5.72;;;6.20;99.90;;;;;;5116021;28;20204;-83
2021/12/16 15:05:58;;;;;;;6.40;5.80;;;6.20;99.90;;;;;;5115886;28;20196;-83
2021/12/16 15:08:34;;;;;;;7.05;5.47;;;6.20;99.90;;;;;;5115847;28;20220;-83
2021/12/16 15:11:06;;;;;;;6.50;5.90;;;6.20;99.90;;;;;;5115267;28;20274;-84
2021/12/16 15:13:41;;;;;;;6.53;5.85;;;6.20;99.90;;;;;;5115467;28;20204;-83
2021/12/16 15:16:34;;;;;;;6.28;5.47;;;6.20;99.90;;;;;;5115291;28;20226;-84
2021/12/16 15:39:20;;;;;;;8.32;6.35;;;5.90;99.90;;;;;;5103915;28;20238;-84
2021/12/16 15:44:34;;;;;;;6.72;6.13;;;5.80;99.90;;;;;;5114961;28;20199;-84
2021/12/16 15:47:04;;;;;;;8.68;7.80;;;5.80;99.90;;;;;;5115103;27;20223;-83
2021/12/16 15:49:35;;;;;;;7.18;6.47;;;5.80;99.90;;;;;;5114588;27;20223;-84
2021/12/16 15:52:04;;;;;;;7.20;6.53;;;5.80;99.90;;;;;;5114996;27;20215;-84
2021/12/16 15:54:35;;;;;;;6.95;6.25;;;5.80;99.90;;;;;;5114847;28;20295;-84
2021/12/16 15:57:05;;;;;;;6.43;5.82;;;5.80;99.90;;;;;;5114229;27;20248;-84
2021/12/16 16:00:01;;;;;;;9.32;6.40;;;5.80;99.90;;;;;;5114233;28;20207;-84
2021/12/16 16:02:24;;;;;;;7.68;6.57;;;5.80;99.90;;;;;;5114708;28;20219;-84
2021/12/16 16:04:52;;;;;;;6.72;6.13;;;5.80;99.90;;;;;;5114639;28;20200;-84
2021/12/16 16:07:21;;;;;;;6.03;5.53;;;5.80;99.90;;;;;;5114204;27;20249;-84
2021/12/16 16:09:52;;;;;;;6.93;6.07;;;5.80;99.90;;;;;;5113727;28;20273;-84
2021/12/16 16:12:27;;;;;;;7.93;6.93;;;5.70;99.90;;;;;;5114834;28;20211;-83
2021/12/16 16:15:00;;;;;;;6.70;6.10;;;5.70;99.90;;;;;;5114909;28;20246;-83
2021/12/16 16:17:40;;;;;;;6.60;5.90;;;5.70;99.90;;;;;;5114121;28;20289;-83
2021/12/16 16:20:10;;;;;;;6.65;5.90;;;5.70;99.90;;;;;;5113705;28;20313;-84
2021/12/16 16:22:38;;;;;;;6.68;5.82;;;5.60;99.90;;;;;;5114244;28;20233;-84